createdAt,value
2023-04-05T00:01:03.903Z,12.10
2023-04-05T00:03:30.536Z,12.50
2023-04-05T00:05:57.151Z,10.48
2023-04-05T00:08:23.700Z,9.50
2023-04-05T00:10:50.797Z,10.48
2023-04-05T00:13:17.284Z,10.25
2023-04-05T00:15:43.854Z,10.10
2023-04-05T00:18:10.542Z,10.43
2023-04-05T00:20:37.019Z,13.75
2023-04-05T00:23:03.533Z,10.45
2023-04-05T00:25:30.019Z,11.27
2023-04-05T00:27:56.522Z,8.55
2023-04-05T00:30:23.020Z,8.73
2023-04-05T00:32:50.343Z,7.15
2023-04-05T00:35:17.124Z,11.20
2023-04-05T00:37:43.637Z,12.38
2023-04-05T00:40:10.362Z,11.30
2023-04-05T00:42:36.848Z,8.90
2023-04-05T00:45:03.536Z,9.43
2023-04-05T00:47:30.113Z,13.00
2023-04-05T00:49:57.197Z,8.52
2023-04-05T00:52:23.908Z,10.52
2023-04-05T00:54:51.529Z,7.25
2023-04-05T00:57:18.156Z,6.82
2023-04-05T00:59:44.631Z,9.55
2023-04-05T01:02:28.715Z,8.50
2023-04-05T01:05:08.702Z,7.30
2023-04-05T01:07:46.132Z,10.65
2023-04-05T01:10:16.286Z,12.23
2023-04-05T01:12:44.216Z,8.13
2023-04-05T01:15:11.592Z,10.10
2023-04-05T01:17:38.118Z,12.15
2023-04-05T01:20:07.792Z,10.68
2023-04-05T01:23:11.923Z,15.18
2023-04-05T01:26:05.955Z,7.32
2023-04-05T01:28:53.549Z,10.80
2023-04-05T01:31:47.353Z,9.20
2023-04-05T01:34:25.831Z,8.13
2023-04-05T01:37:05.960Z,10.02
2023-04-05T01:39:35.639Z,7.60
2023-04-05T01:42:03.447Z,11.85
2023-04-05T01:44:30.050Z,11.35
2023-04-05T01:46:56.734Z,9.20
2023-04-05T01:49:24.139Z,14.20
2023-04-05T01:51:50.802Z,9.57
2023-04-05T01:54:17.456Z,10.75
2023-04-05T01:56:43.932Z,10.05
2023-04-05T01:59:10.425Z,10.43
2023-04-05T02:01:36.999Z,11.00
2023-04-05T02:04:03.529Z,10.25
2023-04-05T02:06:29.991Z,13.57
2023-04-05T02:08:56.500Z,20.30
2023-04-05T02:11:23.129Z,8.02
2023-04-05T02:13:49.651Z,10.25
2023-04-05T02:16:16.252Z,10.57
2023-04-05T02:18:42.918Z,11.02
2023-04-05T02:21:09.597Z,11.63
2023-04-05T02:23:38.578Z,12.25
2023-04-05T02:26:05.135Z,10.32
2023-04-05T02:28:31.606Z,12.23
2023-04-05T02:30:58.106Z,13.15
2023-04-05T02:33:24.587Z,11.10
2023-04-05T02:35:52.412Z,12.15
2023-04-05T02:38:18.986Z,14.60
2023-04-05T02:40:51.519Z,9.32
2023-04-05T02:43:18.049Z,12.23
2023-04-05T02:45:46.353Z,11.98
2023-04-05T02:48:13.578Z,11.38
2023-04-05T02:50:40.304Z,13.93
2023-04-05T02:53:06.925Z,11.75
2023-04-05T02:55:33.478Z,13.52
2023-04-05T02:58:00.702Z,11.57
2023-04-05T03:00:27.483Z,12.63
2023-04-05T03:02:54.043Z,11.30
2023-04-05T03:05:20.538Z,11.38
2023-04-05T03:07:47.064Z,11.77
2023-04-05T03:10:14.270Z,13.07
2023-04-05T03:12:40.743Z,10.93
2023-04-05T03:15:08.013Z,8.82
2023-04-05T03:17:34.539Z,13.48
2023-04-05T03:20:01.027Z,13.13
2023-04-05T03:22:27.523Z,10.45
2023-04-05T03:24:54.057Z,12.15
2023-04-05T03:27:20.635Z,13.07
2023-04-05T03:29:47.205Z,12.43
2023-04-05T03:32:13.692Z,14.00
2023-04-05T03:34:40.243Z,10.10
2023-04-05T03:37:06.724Z,15.55
2023-04-05T03:39:33.210Z,17.55
2023-04-05T03:41:59.687Z,14.00
2023-04-05T03:44:26.147Z,14.90
2023-04-05T03:46:52.785Z,10.85
2023-04-05T03:49:19.425Z,13.80
2023-04-05T03:51:46.079Z,13.43
2023-04-05T03:54:12.668Z,17.33
2023-04-05T03:56:39.197Z,12.18
2023-04-05T03:59:05.785Z,11.35
2023-04-05T04:01:32.327Z,11.15
2023-04-05T04:03:58.827Z,14.45
2023-04-05T04:06:26.312Z,13.52
2023-04-05T04:08:52.928Z,14.82
2023-04-05T04:11:19.434Z,10.73
2023-04-05T04:13:45.889Z,14.18
2023-04-05T04:16:12.471Z,12.57
2023-04-05T04:18:38.971Z,12.02
2023-04-05T04:21:05.520Z,12.88
2023-04-05T04:23:34.991Z,10.07
2023-04-05T04:26:01.497Z,11.60
2023-04-05T04:28:29.434Z,14.23
2023-04-05T04:30:55.946Z,12.38
2023-04-05T04:33:22.482Z,9.60
2023-04-05T04:35:49.049Z,12.07
2023-04-05T04:38:16.211Z,12.15
2023-04-05T04:40:42.722Z,11.70
2023-04-05T04:43:11.318Z,13.02
2023-04-05T04:45:38.133Z,10.38
2023-04-05T04:48:05.209Z,12.05
2023-04-05T04:50:32.485Z,10.05
2023-04-05T04:52:59.571Z,13.45
2023-04-05T04:55:26.106Z,10.98
2023-04-05T04:57:53.414Z,9.05
2023-04-05T05:00:20.989Z,10.15
2023-04-05T05:02:48.094Z,9.63
2023-04-05T05:05:14.701Z,10.75
2023-04-05T05:07:41.668Z,11.75
2023-04-05T05:10:09.716Z,10.57
2023-04-05T05:12:36.986Z,12.88
2023-04-05T05:15:03.788Z,12.40
2023-04-05T05:17:30.298Z,12.82
2023-04-05T05:19:56.795Z,10.43
2023-04-05T05:22:23.263Z,13.98
2023-04-05T05:24:49.715Z,8.82
2023-04-05T05:27:16.252Z,12.70
2023-04-05T05:29:42.763Z,10.20
2023-04-05T05:32:09.527Z,11.32
2023-04-05T05:34:36.056Z,11.65
2023-04-05T05:37:02.555Z,11.93
2023-04-05T05:39:29.045Z,9.60
2023-04-05T05:41:55.577Z,9.07
2023-04-05T05:44:22.078Z,14.05
2023-04-05T05:46:48.693Z,10.50
2023-04-05T05:49:16.416Z,12.18
2023-04-05T05:51:42.906Z,12.02
2023-04-05T05:54:09.387Z,12.32
2023-04-05T05:56:35.850Z,13.73
2023-04-05T05:59:02.424Z,14.32
2023-04-05T06:01:28.972Z,16.42
2023-04-05T06:03:55.932Z,11.05
2023-04-05T06:06:22.943Z,15.38
2023-04-05T06:08:49.522Z,12.82
2023-04-05T06:11:20.086Z,12.25
2023-04-05T06:13:46.561Z,13.18
2023-04-05T06:16:13.054Z,10.85
2023-04-05T06:18:39.593Z,11.68
2023-04-05T06:21:06.132Z,12.68
2023-04-05T06:23:32.677Z,12.07
2023-04-05T06:25:59.213Z,12.13
2023-04-05T06:28:25.716Z,11.57
2023-04-05T06:30:52.265Z,14.18
2023-04-05T06:33:19.002Z,13.10
2023-04-05T06:35:46.737Z,12.52
2023-04-05T06:38:13.268Z,12.93
2023-04-05T06:40:39.947Z,12.98
2023-04-05T06:43:06.598Z,11.55
2023-04-05T06:45:33.236Z,12.98
2023-04-05T06:47:59.826Z,13.73
2023-04-05T06:50:26.416Z,16.33
2023-04-05T06:52:52.934Z,14.60
2023-04-05T06:55:19.428Z,13.05
2023-04-05T06:57:45.931Z,15.35
2023-04-05T07:00:13.332Z,14.82
2023-04-05T07:02:40.200Z,16.52
2023-04-05T07:05:06.961Z,24.23
2023-04-05T07:07:33.512Z,18.85
2023-04-05T07:10:00.049Z,13.25
2023-04-05T07:12:26.599Z,14.00
2023-04-05T07:14:53.075Z,15.68
2023-04-05T07:17:19.602Z,13.65
2023-04-05T07:19:46.070Z,13.70
2023-04-05T07:22:12.540Z,13.80
2023-04-05T07:24:39.306Z,14.10
2023-04-05T07:27:05.830Z,13.20
2023-04-05T07:29:32.344Z,15.77
2023-04-05T07:31:58.893Z,14.38
2023-04-05T07:34:25.506Z,12.45
2023-04-05T07:36:52.045Z,15.30
2023-04-05T07:39:18.554Z,15.23
2023-04-05T07:41:45.136Z,15.63
2023-04-05T07:44:11.612Z,12.93
2023-04-05T07:46:38.181Z,12.13
2023-04-05T07:49:04.768Z,12.48
2023-04-05T07:51:31.320Z,13.70
2023-04-05T07:53:57.831Z,12.52
2023-04-05T07:56:24.359Z,17.33
2023-04-05T07:58:51.649Z,15.77
2023-04-05T08:01:18.216Z,13.38
2023-04-05T08:03:44.810Z,11.23
2023-04-05T08:06:13.193Z,15.43
2023-04-05T08:08:40.637Z,12.65
2023-04-05T08:11:07.666Z,10.70
2023-04-05T08:13:34.193Z,10.65
2023-04-05T08:16:01.277Z,10.15
2023-04-05T08:18:28.131Z,8.35
2023-04-05T08:20:55.342Z,13.32
2023-04-05T08:23:21.998Z,10.05
2023-04-05T08:25:48.478Z,11.18
2023-04-05T08:28:15.060Z,10.73
2023-04-05T08:30:41.847Z,10.25
2023-04-05T08:33:08.929Z,13.27
2023-04-05T08:35:37.003Z,12.05
2023-04-05T08:38:04.198Z,12.73
2023-04-05T08:40:37.373Z,12.27
2023-04-05T08:43:12.842Z,11.27
2023-04-05T08:45:48.621Z,9.98
2023-04-05T08:48:15.943Z,9.80
2023-04-05T08:50:42.835Z,9.98
2023-04-05T08:53:09.540Z,11.48
2023-04-05T08:55:37.911Z,10.18
2023-04-05T08:58:12.493Z,12.38
2023-04-05T09:00:40.865Z,11.10
2023-04-05T09:03:12.877Z,13.48
2023-04-05T09:05:41.019Z,12.07
2023-04-05T09:08:07.570Z,10.52
2023-04-05T09:10:34.350Z,11.15
2023-04-05T09:13:00.814Z,11.20
2023-04-05T09:15:27.727Z,13.25
2023-04-05T09:17:55.817Z,11.88
2023-04-05T09:20:22.632Z,11.73
2023-04-05T09:22:49.334Z,12.77
2023-04-05T09:25:36.547Z,10.60
2023-04-05T09:28:03.040Z,12.68
2023-04-05T09:30:29.818Z,13.68
2023-04-05T09:32:57.150Z,13.75
2023-04-05T09:35:29.782Z,12.13
2023-04-05T09:38:00.335Z,11.27
2023-04-05T09:40:47.679Z,11.50
2023-04-05T09:43:40.952Z,13.75
2023-04-05T09:46:16.483Z,12.63
2023-04-05T09:48:50.131Z,13.43
2023-04-05T09:51:17.623Z,11.70
2023-04-05T09:54:04.510Z,11.25
2023-04-05T09:59:17.251Z,11.75
2023-04-05T10:01:44.754Z,9.93
2023-04-05T10:04:11.370Z,10.70
2023-04-05T10:06:41.250Z,10.77
2023-04-05T10:09:09.349Z,11.77
2023-04-05T10:11:37.320Z,10.70
2023-04-05T10:14:05.651Z,10.68
2023-04-05T10:16:45.335Z,12.00
2023-04-05T10:19:32.014Z,13.73
2023-04-05T10:22:02.081Z,11.88
2023-04-05T10:24:49.554Z,11.10
2023-04-05T10:27:30.658Z,10.35
2023-04-05T10:32:54.638Z,10.95
2023-04-05T10:35:42.267Z,10.10
2023-04-05T10:38:29.160Z,9.38
2023-04-05T10:41:05.797Z,10.65
2023-04-05T10:43:35.061Z,10.93
2023-04-05T10:46:03.456Z,10.18
2023-04-05T10:48:33.001Z,10.10
2023-04-05T10:51:01.206Z,10.82
2023-04-05T10:53:28.433Z,9.93
2023-04-05T10:55:57.566Z,9.55
2023-04-05T10:58:26.413Z,8.95
2023-04-05T11:00:56.218Z,9.55
2023-04-05T11:03:44.486Z,7.90
2023-04-05T11:06:29.189Z,8.90
2023-04-05T11:09:21.139Z,8.48
2023-04-05T11:11:49.574Z,9.55
2023-04-05T11:14:21.612Z,9.10
2023-04-05T11:16:50.409Z,9.70
2023-04-05T11:19:17.654Z,11.38
2023-04-05T11:21:44.226Z,9.80
2023-04-05T11:24:14.678Z,9.75
2023-04-05T11:26:44.175Z,12.20
2023-04-05T11:31:57.947Z,9.98
2023-04-05T11:34:25.246Z,9.38
2023-04-05T11:36:52.056Z,7.20
2023-04-05T11:39:18.603Z,9.40
2023-04-05T11:41:46.833Z,9.40
2023-04-05T11:44:16.925Z,9.07
2023-04-05T11:46:43.608Z,7.80
2023-04-05T11:49:10.250Z,10.70
2023-04-05T11:51:37.227Z,10.57
2023-04-05T11:54:03.761Z,8.35
2023-04-05T11:56:30.380Z,10.85
2023-04-05T11:59:00.384Z,9.40
2023-04-05T12:01:26.997Z,9.05
2023-04-05T12:03:54.733Z,10.23
2023-04-05T12:06:26.055Z,10.55
2023-04-05T12:08:53.153Z,8.77
2023-04-05T12:11:27.371Z,11.63
2023-04-05T12:13:55.938Z,11.07
2023-04-05T12:16:22.510Z,8.45
2023-04-05T12:18:56.330Z,10.95
2023-04-05T12:21:24.030Z,8.82
2023-04-05T12:23:51.200Z,9.82
2023-04-05T12:26:18.280Z,11.57
2023-04-05T12:28:55.746Z,16.73
2023-04-05T12:31:40.992Z,16.02
2023-04-05T12:34:09.032Z,11.40
2023-04-05T12:36:35.935Z,9.50
2023-04-05T12:39:08.285Z,11.55
2023-04-05T12:41:35.202Z,8.90
2023-04-05T12:44:28.665Z,11.85
2023-04-05T12:47:03.070Z,11.73
2023-04-05T12:49:29.730Z,8.60
2023-04-05T12:52:01.557Z,11.52
2023-04-05T12:54:28.115Z,10.65
2023-04-05T12:56:55.416Z,7.97
2023-04-05T12:59:23.127Z,23.13
2023-04-05T13:01:49.990Z,10.80
2023-04-05T13:04:18.749Z,11.05
2023-04-05T13:06:45.579Z,12.07
2023-04-05T13:09:12.067Z,11.63
2023-04-05T13:11:38.622Z,10.30
2023-04-05T13:14:05.130Z,9.63
2023-04-05T13:16:31.645Z,11.20
2023-04-05T13:18:58.179Z,11.10
2023-04-05T13:21:24.827Z,10.80
2023-04-05T13:23:51.318Z,10.80
2023-04-05T13:26:17.814Z,10.68
2023-04-05T13:28:44.333Z,10.75
2023-04-05T13:31:12.006Z,10.95
2023-04-05T13:33:39.559Z,8.20
2023-04-05T13:36:06.460Z,10.20
2023-04-05T13:38:33.025Z,10.65
2023-04-05T13:40:59.556Z,12.15
2023-04-05T13:43:26.031Z,11.65
2023-04-05T13:45:52.556Z,10.75
2023-04-05T13:48:19.081Z,10.52
2023-04-05T13:50:45.609Z,11.10
2023-04-05T13:53:12.176Z,12.75
2023-04-05T13:55:38.706Z,11.68
2023-04-05T13:58:05.174Z,9.93
2023-04-05T14:00:32.067Z,12.55
2023-04-05T14:02:58.689Z,11.05
2023-04-05T14:05:25.263Z,11.95
2023-04-05T14:07:51.747Z,10.70
2023-04-05T14:10:18.353Z,12.50
2023-04-05T14:12:44.859Z,10.13
2023-04-05T14:15:11.695Z,11.63
2023-04-05T14:17:38.235Z,11.13
2023-04-05T14:20:05.307Z,12.10
2023-04-05T14:22:31.811Z,10.98
2023-04-05T14:24:58.409Z,11.45
2023-04-05T14:27:25.022Z,9.88
2023-04-05T14:29:51.517Z,9.85
2023-04-05T14:32:18.070Z,11.45
2023-04-05T14:34:44.585Z,11.48
2023-04-05T14:37:11.123Z,11.50
2023-04-05T14:39:37.649Z,10.00
2023-04-05T14:42:04.260Z,11.02
2023-04-05T14:44:30.801Z,11.45
2023-04-05T14:46:57.512Z,11.13
2023-04-05T14:49:24.112Z,10.98
2023-04-05T14:51:50.640Z,12.27
2023-04-05T14:54:17.216Z,10.68
2023-04-05T14:56:43.747Z,10.32
2023-04-05T14:59:10.410Z,11.02
2023-04-05T15:01:37.087Z,9.98
2023-04-05T15:04:04.097Z,11.70
2023-04-05T15:06:30.625Z,11.63
2023-04-05T15:08:57.166Z,9.30
2023-04-05T15:11:23.803Z,9.15
2023-04-05T15:13:50.332Z,12.45
2023-04-05T15:16:16.916Z,12.63
2023-04-05T15:18:43.482Z,10.60
2023-04-05T15:21:10.261Z,13.13
2023-04-05T15:23:36.853Z,11.35
2023-04-05T15:26:03.378Z,13.07
2023-04-05T15:28:29.901Z,12.60
2023-04-05T15:30:56.534Z,13.07
2023-04-05T15:33:23.043Z,11.25
2023-04-05T15:35:49.669Z,11.60
2023-04-05T15:38:16.277Z,14.55
2023-04-05T15:40:46.441Z,12.32
2023-04-05T15:43:13.022Z,10.77
2023-04-05T15:45:39.537Z,12.18
2023-04-05T15:48:06.147Z,13.80
2023-04-05T15:50:32.755Z,12.43
2023-04-05T15:52:59.340Z,11.80
2023-04-05T15:55:25.883Z,11.65
2023-04-05T15:57:52.376Z,12.38
2023-04-05T16:00:19.587Z,11.60
2023-04-05T16:02:46.259Z,13.38
2023-04-05T16:05:12.981Z,11.75
2023-04-05T16:07:39.623Z,14.50
2023-04-05T16:10:06.758Z,11.55
2023-04-05T16:12:33.311Z,12.80
2023-04-05T16:14:59.879Z,12.25
2023-04-05T16:17:26.541Z,12.23
2023-04-05T16:19:54.647Z,12.82
2023-04-05T16:22:23.113Z,13.45
2023-04-05T16:24:49.626Z,11.77
2023-04-05T16:27:16.256Z,15.93
2023-04-05T16:29:42.768Z,12.82
2023-04-05T16:32:09.423Z,12.88
2023-04-05T16:34:36.067Z,12.32
2023-04-05T16:37:02.591Z,18.35
2023-04-05T16:39:29.103Z,12.65
2023-04-05T16:41:55.644Z,13.55
2023-04-05T16:44:22.198Z,12.55
2023-04-05T16:46:49.822Z,14.82
2023-04-05T16:49:16.391Z,13.93
2023-04-05T16:51:43.009Z,14.82
2023-04-05T16:54:10.653Z,13.07
2023-04-05T16:56:37.184Z,15.27
2023-04-05T16:59:05.767Z,14.77
2023-04-05T17:04:00.202Z,12.10
2023-04-05T17:06:30.833Z,12.48
2023-04-05T17:08:57.522Z,12.43
2023-04-05T17:11:24.150Z,11.40
2023-04-05T17:13:50.752Z,12.95
2023-04-05T17:16:17.448Z,15.60
2023-04-05T17:18:44.038Z,12.27
2023-04-05T17:21:10.820Z,11.63
2023-04-05T17:23:37.372Z,14.68
2023-04-05T17:26:04.068Z,11.75
2023-04-05T17:28:30.613Z,12.20
2023-04-05T17:30:57.230Z,13.00
2023-04-05T17:33:23.790Z,11.88
2023-04-05T17:35:50.378Z,14.45
2023-04-05T17:38:17.067Z,16.92
2023-04-05T17:40:43.732Z,12.32
2023-04-05T17:43:10.289Z,13.65
2023-04-05T17:45:37.116Z,12.27
2023-04-05T17:48:03.749Z,14.13
2023-04-05T17:50:30.468Z,11.10
2023-04-05T17:52:56.984Z,13.82
2023-04-05T17:55:24.134Z,13.38
2023-04-05T17:57:50.706Z,13.75
2023-04-05T18:00:17.735Z,13.57
2023-04-05T18:02:45.595Z,14.10
2023-04-05T18:05:12.605Z,16.33
2023-04-05T18:07:39.190Z,14.07
2023-04-05T18:10:06.403Z,15.52
2023-04-05T18:12:33.686Z,12.63
2023-04-05T18:15:00.527Z,14.30
2023-04-05T18:17:27.111Z,14.32
2023-04-05T18:19:54.755Z,13.50
2023-04-05T18:22:21.395Z,14.30
2023-04-05T18:24:47.913Z,15.07
2023-04-05T18:27:14.555Z,12.30
2023-04-05T18:29:41.171Z,16.00
2023-04-05T18:32:07.881Z,13.60
2023-04-05T18:34:34.838Z,16.33
2023-04-05T18:37:02.024Z,13.95
2023-04-05T18:39:28.569Z,17.50
2023-04-05T18:41:55.122Z,18.13
2023-04-05T18:44:21.739Z,13.02
2023-04-05T18:46:48.296Z,15.57
2023-04-05T18:49:14.999Z,16.92
2023-04-05T18:51:41.706Z,16.02
2023-04-05T18:54:08.253Z,14.00
2023-04-05T18:56:34.816Z,15.52
2023-04-05T18:59:01.386Z,15.73
2023-04-05T19:01:27.992Z,17.02
2023-04-05T19:03:54.569Z,16.73
2023-04-05T19:06:21.114Z,15.57
2023-04-05T19:08:47.717Z,15.45
2023-04-05T19:11:14.343Z,16.23
2023-04-05T19:13:41.488Z,15.30
2023-04-05T19:16:08.257Z,14.82
2023-04-05T19:18:34.976Z,15.20
2023-04-05T19:21:01.540Z,16.10
2023-04-05T19:23:28.766Z,16.23
2023-04-05T19:25:56.138Z,15.15
2023-04-05T19:28:23.418Z,14.50
2023-04-05T19:30:50.131Z,16.00
2023-04-05T19:33:17.286Z,16.05
2023-04-05T19:35:45.340Z,18.95
2023-04-05T19:38:12.008Z,15.45
2023-04-05T19:40:38.759Z,17.60
2023-04-05T19:43:05.310Z,14.85
2023-04-05T19:45:32.261Z,14.05
2023-04-05T19:48:01.275Z,15.38
2023-04-05T19:50:51.839Z,15.77
2023-04-05T19:53:46.691Z,14.40
2023-04-05T19:56:21.876Z,14.30
2023-04-05T19:59:37.780Z,15.48
2023-04-05T20:02:18.810Z,14.13
2023-04-05T20:04:45.326Z,16.15
2023-04-05T20:07:12.732Z,14.80
2023-04-05T20:09:39.467Z,17.60
2023-04-05T20:12:06.266Z,17.33
2023-04-05T20:14:44.080Z,15.27
2023-04-05T20:17:12.610Z,14.80
2023-04-05T20:19:40.748Z,19.10
2023-04-05T20:22:08.984Z,18.45
2023-04-05T20:24:38.428Z,19.83
2023-04-05T20:27:05.121Z,20.98
2023-04-05T20:29:33.815Z,21.50
2023-04-05T20:32:01.479Z,20.63
2023-04-05T20:34:33.057Z,21.27
2023-04-05T20:37:07.419Z,18.70
2023-04-05T20:39:34.381Z,19.40
2023-04-05T20:42:01.080Z,17.58
2023-04-05T20:44:27.653Z,19.25
2023-04-05T20:46:55.614Z,16.40
2023-04-05T20:49:22.884Z,18.70
2023-04-05T20:51:50.027Z,15.98
2023-04-05T20:54:17.254Z,13.43
2023-04-05T20:56:43.759Z,16.75
2023-04-05T20:59:10.827Z,13.27
2023-04-05T21:01:37.545Z,14.73
2023-04-05T21:04:04.990Z,13.63
2023-04-05T21:06:31.673Z,12.88
2023-04-05T21:08:58.263Z,16.35
2023-04-05T21:11:24.790Z,14.10
2023-04-05T21:13:51.281Z,17.67
2023-04-05T21:16:18.202Z,19.13
2023-04-05T21:18:44.836Z,18.38
2023-04-05T21:21:11.426Z,14.05
2023-04-05T21:23:37.958Z,22.92
2023-04-05T21:26:04.636Z,19.00
2023-04-05T21:28:31.375Z,16.70
2023-04-05T21:30:57.935Z,19.42
2023-04-05T21:33:24.743Z,18.50
2023-04-05T21:35:51.300Z,17.35
2023-04-05T21:38:18.364Z,20.90
2023-04-05T21:40:45.039Z,18.50
2023-04-05T21:43:12.617Z,15.80
2023-04-05T21:45:39.142Z,18.10
2023-04-05T21:48:06.007Z,21.33
2023-04-05T21:50:32.617Z,16.75
2023-04-05T21:52:59.291Z,24.50
2023-04-05T21:55:25.806Z,20.08
2023-04-05T21:57:52.372Z,19.38
2023-04-05T22:00:19.170Z,17.48
2023-04-05T22:02:45.744Z,16.70
2023-04-05T22:05:14.269Z,18.80
2023-04-05T22:07:46.279Z,22.70
2023-04-05T22:10:12.891Z,19.42
2023-04-05T22:12:39.386Z,17.38
2023-04-05T22:15:06.374Z,15.52
2023-04-05T22:17:32.929Z,20.52
2023-04-05T22:19:59.488Z,15.90
2023-04-05T22:22:26.040Z,17.75
2023-04-05T22:24:52.605Z,21.98
2023-04-05T22:27:19.160Z,18.83
2023-04-05T22:29:45.683Z,16.15
2023-04-05T22:32:12.305Z,16.50
2023-04-05T22:34:38.961Z,17.17
2023-04-05T22:37:05.506Z,18.60
2023-04-05T22:39:32.045Z,19.50
2023-04-05T22:41:58.532Z,19.88
2023-04-05T22:44:25.059Z,17.35
2023-04-05T22:46:51.601Z,20.02
2023-04-05T22:49:18.181Z,19.48
2023-04-05T22:51:44.688Z,19.63
2023-04-05T22:54:11.231Z,21.02
2023-04-05T22:56:37.773Z,21.13
2023-04-05T22:59:04.336Z,18.45
2023-04-05T23:01:30.945Z,16.77
2023-04-05T23:03:57.471Z,20.00
2023-04-05T23:06:24.670Z,16.80
2023-04-05T23:08:51.181Z,17.80
2023-04-05T23:11:17.747Z,16.13
2023-04-05T23:13:46.710Z,17.58
2023-04-05T23:16:13.416Z,20.35
2023-04-05T23:18:40.369Z,16.15
2023-04-05T23:21:06.961Z,16.60
2023-04-05T23:23:33.467Z,19.90
2023-04-05T23:25:59.974Z,14.85
2023-04-05T23:28:26.513Z,15.05
2023-04-05T23:30:53.020Z,14.73
2023-04-05T23:33:19.523Z,16.67
2023-04-05T23:35:46.074Z,21.40
2023-04-05T23:38:12.629Z,20.05
2023-04-05T23:40:39.194Z,13.93
2023-04-05T23:43:05.731Z,13.95
2023-04-05T23:45:32.226Z,16.35
2023-04-05T23:47:58.753Z,20.73
2023-04-05T23:50:25.311Z,17.02
2023-04-05T23:52:51.899Z,16.40
2023-04-05T23:55:18.479Z,16.05
2023-04-05T23:57:45.032Z,15.50
